createdAt,value
2018-02-06T00:00:24.090Z,0.60
2018-02-06T00:02:51.554Z,0.60
2018-02-06T00:05:19.035Z,0.50
2018-02-06T00:07:46.469Z,0.50
2018-02-06T00:10:13.903Z,0.40
2018-02-06T00:12:41.351Z,0.30
2018-02-06T00:15:08.787Z,0.30
2018-02-06T00:17:36.239Z,0.30
2018-02-06T00:20:03.695Z,0.40
2018-02-06T00:22:42.859Z,0.50
2018-02-06T00:25:10.319Z,0.50
2018-02-06T00:27:37.837Z,0.50
2018-02-06T00:30:05.285Z,0.50
2018-02-06T00:32:33.480Z,0.50
2018-02-06T00:35:00.945Z,0.40
2018-02-06T00:37:28.412Z,0.40
2018-02-06T00:39:55.887Z,0.30
2018-02-06T00:42:23.352Z,0.50
2018-02-06T00:44:50.793Z,0.30
2018-02-06T00:47:18.249Z,0.30
2018-02-06T00:49:45.705Z,0.30
2018-02-06T00:52:13.156Z,0.50
2018-02-06T00:54:40.596Z,0.70
2018-02-06T00:57:08.083Z,0.80
2018-02-06T00:59:35.525Z,0.90
2018-02-06T01:02:02.988Z,0.80
2018-02-06T01:04:30.440Z,0.60
2018-02-06T01:06:57.896Z,0.50
2018-02-06T01:09:27.066Z,0.40
2018-02-06T01:11:54.522Z,0.40
2018-02-06T01:14:21.979Z,0.40
2018-02-06T01:16:49.463Z,0.40
2018-02-06T01:19:16.931Z,0.40
2018-02-06T01:21:44.373Z,0.50
2018-02-06T01:24:11.848Z,0.70
2018-02-06T01:26:39.341Z,0.70
2018-02-06T01:29:06.755Z,0.80
2018-02-06T01:31:34.210Z,0.70
2018-02-06T01:34:01.667Z,0.70
2018-02-06T01:36:29.125Z,0.60
2018-02-06T01:38:56.583Z,0.50
2018-02-06T01:41:24.039Z,0.50
2018-02-06T01:43:51.496Z,0.70
2018-02-06T01:46:18.927Z,1.00
2018-02-06T01:48:46.382Z,0.70
2018-02-06T01:51:13.839Z,0.80
2018-02-06T01:53:41.284Z,0.70
2018-02-06T01:56:09.489Z,1.00
2018-02-06T01:58:36.940Z,0.90
2018-02-06T02:01:04.395Z,1.10
2018-02-06T02:03:31.824Z,1.30
2018-02-06T02:05:59.277Z,1.30
2018-02-06T02:08:26.707Z,1.20
2018-02-06T02:10:54.172Z,0.90
2018-02-06T02:13:21.619Z,0.60
2018-02-06T02:15:49.059Z,0.60
2018-02-06T02:18:16.512Z,0.70
2018-02-06T02:20:43.972Z,0.80
2018-02-06T02:23:11.408Z,0.90
2018-02-06T02:25:38.868Z,0.60
2018-02-06T02:28:06.329Z,0.90
2018-02-06T02:30:33.790Z,1.00
2018-02-06T02:33:01.222Z,1.10
2018-02-06T02:35:28.671Z,1.10
2018-02-06T02:38:00.745Z,1.10
2018-02-06T02:40:28.180Z,1.00
2018-02-06T04:38:27.319Z,0.90
2018-02-06T04:40:54.770Z,0.60
2018-02-06T04:43:22.223Z,0.60
2018-02-06T04:45:49.698Z,0.50
2018-02-06T04:48:17.139Z,0.60
2018-02-06T04:50:44.603Z,0.80
2018-02-06T04:53:12.049Z,0.90
2018-02-06T04:55:39.498Z,0.90
2018-02-06T04:58:06.946Z,1.10
2018-02-06T05:00:34.379Z,1.00
2018-02-06T05:03:02.599Z,0.80
2018-02-06T05:05:30.053Z,0.80
2018-02-06T05:07:57.512Z,0.70
2018-02-06T05:10:24.951Z,0.40
2018-02-06T05:12:52.405Z,0.40
2018-02-06T05:15:19.844Z,0.30
2018-02-06T05:17:47.279Z,0.30
2018-02-06T05:20:14.726Z,0.20
2018-02-06T05:22:42.172Z,0.30
2018-02-06T05:25:09.622Z,0.40
2018-02-06T05:27:37.056Z,0.50
2018-02-06T05:30:04.515Z,0.70
2018-02-06T05:32:32.062Z,0.80
2018-02-06T05:34:59.534Z,0.70
2018-02-06T05:37:26.991Z,0.70
2018-02-06T05:39:54.418Z,0.40
2018-02-06T05:42:21.875Z,0.40
2018-02-06T05:44:49.309Z,0.50
2018-02-06T05:47:16.779Z,0.40
2018-02-06T05:49:44.218Z,0.50
2018-02-06T05:52:11.667Z,0.60
2018-02-06T05:54:39.115Z,0.60
2018-02-06T05:57:06.559Z,0.70
2018-02-06T05:59:34.013Z,0.60
2018-02-06T06:02:02.092Z,0.60
2018-02-06T06:04:29.551Z,0.60
2018-02-06T06:06:57.000Z,0.70
2018-02-06T06:09:24.457Z,0.90
2018-02-06T06:11:51.931Z,0.90
2018-02-06T06:14:19.369Z,0.90
2018-02-06T06:16:46.921Z,0.80
2018-02-06T06:19:14.364Z,0.90
2018-02-06T06:21:41.821Z,0.80
2018-02-06T06:24:09.272Z,0.80
2018-02-06T06:26:36.696Z,0.80
2018-02-06T06:29:04.931Z,0.60
2018-02-06T06:31:32.494Z,0.50
2018-02-06T06:34:00.086Z,0.60
2018-02-06T06:36:27.669Z,0.70
2018-02-06T06:38:55.990Z,0.50
2018-02-06T06:41:23.573Z,0.40
2018-02-06T06:43:51.110Z,0.40
2018-02-06T06:46:18.694Z,0.30
2018-02-06T06:48:46.242Z,0.20
2018-02-06T06:51:13.816Z,0.20
2018-02-06T06:53:41.417Z,0.20
2018-02-06T06:56:09.770Z,0.40
2018-02-06T06:58:37.323Z,0.30
2018-02-06T07:01:04.974Z,0.30
2018-02-06T07:03:32.555Z,0.50
2018-02-06T07:06:00.142Z,0.70
2018-02-06T07:08:27.745Z,0.80
2018-02-06T07:10:55.344Z,0.70
2018-02-06T07:13:22.938Z,0.60
2018-02-06T07:15:50.554Z,0.60
2018-02-06T07:18:18.139Z,0.70
2018-02-06T07:20:45.743Z,0.80
2018-02-06T07:23:13.301Z,0.70
2018-02-06T07:25:40.937Z,0.80
2018-02-06T07:28:08.546Z,0.80
2018-02-06T07:30:36.121Z,0.80
2018-02-06T07:33:03.765Z,0.70
2018-02-06T07:35:31.368Z,0.90
2018-02-06T07:37:58.921Z,0.70
2018-02-06T07:40:26.522Z,0.80
2018-02-06T07:42:54.081Z,1.00
2018-02-06T07:45:21.661Z,1.00
2018-02-06T07:47:49.246Z,1.10
2018-02-06T07:50:16.781Z,1.00
2018-02-06T07:52:44.353Z,1.00
2018-02-06T07:55:11.893Z,1.10
2018-02-06T07:57:39.470Z,1.00
2018-02-06T08:00:07.053Z,1.10
2018-02-06T08:02:35.363Z,1.50
2018-02-06T08:05:02.941Z,1.50
2018-02-06T08:07:30.601Z,1.50
2018-02-06T08:09:58.202Z,1.70
2018-02-06T08:12:25.848Z,1.90
2018-02-06T08:14:53.394Z,1.70
2018-02-06T08:17:20.950Z,1.60
2018-02-06T08:19:49.304Z,1.30
2018-02-06T08:22:16.863Z,1.20
2018-02-06T08:24:44.444Z,1.30
2018-02-06T08:27:12.000Z,1.20
2018-02-06T08:29:39.548Z,1.10
2018-02-06T08:32:07.125Z,1.30
2018-02-06T08:34:34.666Z,1.60
2018-02-06T08:37:02.226Z,1.70
2018-02-06T08:39:29.798Z,1.90
2018-02-06T08:41:57.409Z,2.00
2018-02-06T08:44:24.994Z,1.80
2018-02-06T08:46:52.541Z,1.90
2018-02-06T08:49:20.141Z,1.70
2018-02-06T08:51:47.726Z,1.60
2018-02-06T08:54:15.293Z,1.60
2018-02-06T08:56:42.865Z,1.70
2018-02-06T08:59:11.188Z,1.90
2018-02-06T09:01:38.738Z,1.80
2018-02-06T09:04:06.318Z,1.90
2018-02-06T09:06:34.621Z,1.70
2018-02-06T09:09:02.195Z,1.60
2018-02-06T09:11:29.744Z,1.60
2018-02-06T09:13:57.330Z,1.40
2018-02-06T09:16:24.906Z,1.50
2018-02-06T09:18:52.496Z,1.40
2018-02-06T09:21:20.049Z,1.60
2018-02-06T09:23:47.666Z,1.70
2018-02-06T09:26:16.002Z,1.80
2018-02-06T09:28:43.565Z,1.70
2018-02-06T09:31:11.140Z,1.90
2018-02-06T09:33:38.718Z,2.10
2018-02-06T09:36:07.143Z,2.00
2018-02-06T09:38:34.685Z,1.90
2018-02-06T09:41:02.364Z,2.20
2018-02-06T09:43:31.202Z,2.30
2018-02-06T09:45:59.573Z,2.60
2018-02-06T09:48:27.169Z,2.50
2018-02-06T09:50:54.702Z,2.80
2018-02-06T09:53:22.281Z,2.90
2018-02-06T09:55:49.866Z,3.00
2018-02-06T09:58:17.415Z,3.10
2018-02-06T10:00:45.003Z,3.10
2018-02-06T10:03:12.547Z,3.00
2018-02-06T10:05:40.117Z,3.10
2018-02-06T10:08:07.773Z,3.50
2018-02-06T10:10:35.354Z,3.70
2018-02-06T10:13:02.956Z,3.90
2018-02-06T10:15:31.290Z,4.10
2018-02-06T10:17:59.018Z,4.00
2018-02-06T10:20:26.581Z,4.20
2018-02-06T10:22:54.114Z,4.10
2018-02-06T10:25:21.678Z,4.40
2018-02-06T10:27:50.009Z,4.50
2018-02-06T10:30:17.550Z,4.40
2018-02-06T10:32:45.118Z,4.50
2018-02-06T10:35:12.681Z,4.70
2018-02-06T10:37:40.233Z,4.70
2018-02-06T10:40:08.038Z,4.90
2018-02-06T10:42:35.569Z,5.00
2018-02-06T10:45:03.187Z,5.40
2018-02-06T10:47:30.721Z,5.90
2018-02-06T10:49:58.286Z,6.50
2018-02-06T10:52:25.854Z,7.10
2018-02-06T10:54:53.455Z,8.10
2018-02-06T10:57:21.029Z,9.40
2018-02-06T10:59:48.601Z,10.20
2018-02-06T11:02:16.372Z,10.90
2018-02-06T11:04:43.997Z,10.80
2018-02-06T11:07:11.537Z,11.90
2018-02-06T11:09:39.109Z,12.10
2018-02-06T11:12:06.879Z,13.20
2018-02-06T11:14:34.438Z,13.80
2018-02-06T11:17:02.035Z,14.50
2018-02-06T11:19:29.569Z,14.80
2018-02-06T11:21:57.137Z,13.80
2018-02-06T11:24:24.678Z,13.20
2018-02-06T11:26:52.285Z,13.20
2018-02-06T11:29:19.885Z,13.70
2018-02-06T11:31:47.517Z,13.60
2018-02-06T11:34:15.910Z,12.80
2018-02-06T11:36:43.453Z,12.70
2018-02-06T11:39:11.045Z,12.20
2018-02-06T11:41:38.627Z,12.30
2018-02-06T11:44:06.164Z,12.10
2018-02-06T11:46:33.963Z,11.80
2018-02-06T11:49:01.502Z,10.90
2018-02-06T11:51:29.103Z,10.00
2018-02-06T11:53:56.643Z,9.90
2018-02-06T11:56:24.206Z,9.70
2018-02-06T11:58:51.786Z,9.70
2018-02-06T12:01:19.401Z,9.60
2018-02-06T12:03:46.982Z,9.60
2018-02-06T12:06:14.538Z,9.60
2018-02-06T12:08:42.300Z,9.80
2018-02-06T12:11:09.885Z,10.00
2018-02-06T12:13:37.457Z,10.10
2018-02-06T12:16:06.507Z,10.80
2018-02-06T12:18:34.085Z,10.70
2018-02-06T12:21:01.674Z,11.60
2018-02-06T12:23:29.213Z,12.00
2018-02-06T12:25:56.908Z,12.60
2018-02-06T12:28:24.501Z,13.10
2018-02-06T12:30:53.088Z,13.30
2018-02-06T12:33:20.667Z,13.30
2018-02-06T12:35:48.235Z,13.10
2018-02-06T12:38:15.838Z,12.70
2018-02-06T12:40:44.167Z,11.80
2018-02-06T12:43:11.950Z,11.70
2018-02-06T12:45:39.523Z,11.50
2018-02-06T12:48:07.097Z,11.30
2018-02-06T12:50:34.654Z,11.20
2018-02-06T12:53:02.989Z,11.50
2018-02-06T12:55:30.577Z,11.40
2018-02-06T12:57:58.158Z,11.70
2018-02-06T13:00:25.729Z,11.70
2018-02-06T13:02:53.429Z,11.40
2018-02-06T13:05:21.115Z,11.10
2018-02-06T13:07:48.838Z,11.30
2018-02-06T13:10:16.494Z,11.60
2018-02-06T13:12:44.160Z,12.20
2018-02-06T13:15:11.746Z,12.80
2018-02-06T13:17:39.317Z,13.60
2018-02-06T13:20:06.897Z,14.60
2018-02-06T13:22:35.297Z,16.90
2018-02-06T13:25:02.874Z,16.80
2018-02-06T13:27:30.458Z,17.90
2018-02-06T13:29:58.033Z,18.60
2018-02-06T13:32:25.608Z,19.60
2018-02-06T13:34:53.198Z,20.20
2018-02-06T13:37:20.776Z,21.00
2018-02-06T13:39:48.354Z,21.30
2018-02-06T13:42:15.910Z,21.50
2018-02-06T13:44:43.448Z,21.50
2018-02-06T13:47:11.120Z,21.50
2018-02-06T13:49:38.724Z,21.90
2018-02-06T13:52:06.301Z,22.10
2018-02-06T13:54:34.614Z,21.70
2018-02-06T13:57:02.399Z,21.70
2018-02-06T13:59:29.967Z,20.80
2018-02-06T14:01:57.543Z,19.90
2018-02-06T14:04:25.136Z,18.90
2018-02-06T14:06:52.717Z,18.00
2018-02-06T14:09:20.254Z,16.70
2018-02-06T14:11:47.830Z,15.30
2018-02-06T14:14:15.405Z,14.30
2018-02-06T14:16:43.010Z,13.10
2018-02-06T14:19:11.338Z,11.60
2018-02-06T14:21:38.894Z,11.50
2018-02-06T14:24:06.478Z,11.10
2018-02-06T14:26:34.113Z,10.70
2018-02-06T14:29:01.675Z,10.40
2018-02-06T14:31:29.265Z,10.10
2018-02-06T14:33:56.825Z,9.80
2018-02-06T14:36:24.409Z,9.50
2018-02-06T14:38:51.959Z,9.20
2018-02-06T14:41:19.702Z,8.90
2018-02-06T14:43:47.257Z,8.80
2018-02-06T14:46:14.841Z,8.70
2018-02-06T14:48:42.386Z,8.50
2018-02-06T14:51:09.978Z,8.30
2018-02-06T14:53:37.695Z,8.10
2018-02-06T14:56:05.290Z,7.80
2018-02-06T14:58:32.834Z,7.60
2018-02-06T15:01:00.430Z,7.30
2018-02-06T15:03:28.047Z,7.20
2018-02-06T15:05:55.627Z,7.10
2018-02-06T15:08:23.168Z,7.00
2018-02-06T15:10:50.757Z,7.00
2018-02-06T15:13:18.361Z,6.80
2018-02-06T15:15:45.956Z,6.30
2018-02-06T15:18:13.552Z,6.20
2018-02-06T15:20:41.121Z,6.20
2018-02-06T15:23:08.704Z,6.30
2018-02-06T15:25:36.335Z,6.30
2018-02-06T15:28:03.954Z,6.20
2018-02-06T15:30:31.554Z,5.80
2018-02-06T15:32:59.093Z,5.70
2018-02-06T15:35:27.398Z,5.70
2018-02-06T15:37:54.969Z,5.60
2018-02-06T15:40:22.561Z,5.70
2018-02-06T15:42:50.102Z,5.70
2018-02-06T15:45:18.418Z,5.60
2018-02-06T15:47:46.029Z,5.50
2018-02-06T15:50:13.516Z,5.50
2018-02-06T15:52:40.948Z,5.30
2018-02-06T15:55:08.391Z,5.30
2018-02-06T15:57:35.850Z,5.20
2018-02-06T16:00:03.293Z,5.10
2018-02-06T16:02:30.737Z,5.10
2018-02-06T16:04:58.195Z,5.00
2018-02-06T16:07:25.647Z,4.80
2018-02-06T16:09:53.237Z,4.80
2018-02-06T16:12:20.656Z,4.60
2018-02-06T16:14:48.106Z,4.50
2018-02-06T16:17:15.552Z,4.50
2018-02-06T16:19:43.006Z,4.50
2018-02-06T16:22:10.447Z,4.50
2018-02-06T16:24:37.908Z,4.40
2018-02-06T16:27:05.359Z,4.40
2018-02-06T16:29:32.836Z,4.30
2018-02-06T16:32:00.314Z,4.20
2018-02-06T16:34:28.535Z,4.10
2018-02-06T16:36:55.969Z,4.00
2018-02-06T16:39:23.420Z,3.80
2018-02-06T16:41:50.868Z,3.70
2018-02-06T16:44:18.319Z,3.70
2018-02-06T16:46:46.539Z,3.50
2018-02-06T16:49:14.008Z,3.40
2018-02-06T16:51:41.488Z,3.40
2018-02-06T16:54:08.952Z,3.30
2018-02-06T16:56:36.386Z,3.40
2018-02-06T16:59:03.848Z,3.50
2018-02-06T17:01:31.296Z,3.20
2018-02-06T17:03:58.749Z,3.00
2018-02-06T17:06:26.220Z,3.10
2018-02-06T17:08:53.720Z,3.10
2018-02-06T17:11:21.174Z,3.10
2018-02-06T17:13:49.589Z,2.90
2018-02-06T17:16:17.085Z,2.80
2018-02-06T17:18:44.543Z,3.00
2018-02-06T17:21:11.984Z,3.00
2018-02-06T17:23:39.477Z,3.00
2018-02-06T17:26:07.731Z,2.70
2018-02-06T17:28:35.181Z,2.70
2018-02-06T17:31:02.629Z,2.60
2018-02-06T17:33:30.092Z,2.70
2018-02-06T17:35:57.602Z,2.60
2018-02-06T17:38:25.055Z,2.50
2018-02-06T17:40:52.543Z,2.60
2018-02-06T17:43:20.008Z,2.60
2018-02-06T17:45:47.490Z,2.70
2018-02-06T17:48:14.948Z,2.70
2018-02-06T17:50:42.367Z,2.60
2018-02-06T17:53:09.828Z,2.50
2018-02-06T17:55:37.280Z,2.40
2018-02-06T17:58:04.752Z,2.50
2018-02-06T18:00:32.214Z,2.50
2018-02-06T18:02:59.677Z,2.60
2018-02-06T18:05:27.132Z,2.50
2018-02-06T18:07:54.615Z,2.50
2018-02-06T18:10:22.123Z,2.30
2018-02-06T18:12:49.560Z,2.20
2018-02-06T18:15:17.077Z,2.20
2018-02-06T18:17:44.502Z,2.00
2018-02-06T18:20:12.132Z,1.90
2018-02-06T18:22:39.634Z,1.90
2018-02-06T18:25:07.129Z,2.00
2018-02-06T18:27:34.649Z,1.90
2018-02-06T18:30:02.144Z,1.90
2018-02-06T18:32:30.382Z,1.90
2018-02-06T18:34:57.868Z,1.80
2018-02-06T18:37:25.344Z,2.10
2018-02-06T18:39:52.986Z,2.00
2018-02-06T18:42:22.636Z,2.00
2018-02-06T18:44:50.094Z,1.90
2018-02-06T18:47:17.552Z,1.90
2018-02-06T18:49:45.004Z,2.10
2018-02-06T18:52:13.520Z,2.10
2018-02-06T18:54:41.123Z,2.20
2018-02-06T18:57:08.577Z,2.10
2018-02-06T18:59:36.902Z,2.20
2018-02-06T19:02:04.398Z,2.10
2018-02-06T19:04:31.885Z,2.20
2018-02-06T19:06:59.319Z,1.80
2018-02-06T19:09:26.771Z,1.70
2018-02-06T19:11:54.230Z,1.60
2018-02-06T19:14:21.695Z,1.70
2018-02-06T19:16:49.916Z,1.60
2018-02-06T19:19:17.352Z,1.60
2018-02-06T19:21:44.807Z,1.60
2018-02-06T19:24:12.279Z,1.50
2018-02-06T19:26:39.920Z,1.60
2018-02-06T19:29:07.367Z,1.60
2018-02-06T19:31:34.833Z,1.70
2018-02-06T19:34:02.265Z,1.80
2018-02-06T19:36:29.723Z,1.90
2018-02-06T19:38:57.197Z,2.00
2018-02-06T19:41:24.684Z,2.00
2018-02-06T19:43:52.142Z,2.00
2018-02-06T19:46:19.583Z,2.10
2018-02-06T19:48:47.033Z,2.10
2018-02-06T19:51:14.508Z,2.10
2018-02-06T19:53:41.947Z,2.10
2018-02-06T19:56:09.459Z,2.10
2018-02-06T19:58:36.919Z,2.10
2018-02-06T20:01:04.352Z,2.10
2018-02-06T20:03:32.558Z,2.00
2018-02-06T20:06:00.015Z,2.00
2018-02-06T20:08:27.487Z,2.00
2018-02-06T20:10:55.717Z,1.90
2018-02-06T20:13:23.151Z,1.90
2018-02-06T20:15:50.621Z,1.90
2018-02-06T20:18:18.059Z,1.90
2018-02-06T20:20:45.517Z,1.80
2018-02-06T20:23:13.050Z,1.80
2018-02-06T20:25:40.498Z,1.80
2018-02-06T20:28:07.956Z,1.80
2018-02-06T20:30:35.417Z,1.80
2018-02-06T20:33:02.864Z,1.70
2018-02-06T20:35:30.311Z,1.80
2018-02-06T20:37:57.759Z,1.80
2018-02-06T20:40:25.218Z,1.80
2018-02-06T20:42:52.683Z,1.80
2018-02-06T20:45:20.151Z,1.80
2018-02-06T20:47:47.579Z,1.70
2018-02-06T20:50:15.027Z,1.70
2018-02-06T20:52:42.471Z,1.60
2018-02-06T20:55:09.916Z,1.60
2018-02-06T20:57:37.367Z,1.60
2018-02-06T21:00:04.869Z,1.40
2018-02-06T21:02:32.290Z,1.40
2018-02-06T21:04:59.756Z,1.50
2018-02-06T21:07:27.224Z,1.50
2018-02-06T21:09:54.675Z,1.50
2018-02-06T21:12:22.338Z,1.60
2018-02-06T21:14:49.870Z,1.60
2018-02-06T21:17:17.313Z,1.70
2018-02-06T21:19:44.770Z,1.60
2018-02-06T21:22:12.230Z,1.70
2018-02-06T21:24:39.666Z,1.60
2018-02-06T21:27:07.107Z,1.50
2018-02-06T21:29:34.569Z,1.40
2018-02-06T21:32:02.037Z,1.30
2018-02-06T21:34:29.484Z,1.10
2018-02-06T21:36:56.969Z,1.10
2018-02-06T21:39:24.431Z,1.20
2018-02-06T21:41:51.890Z,1.20
2018-02-06T21:44:19.347Z,1.10
2018-02-06T21:46:46.800Z,0.90
2018-02-06T21:49:15.022Z,1.10
2018-02-06T21:51:42.459Z,1.00
2018-02-06T21:54:09.929Z,1.20
2018-02-06T21:56:37.361Z,1.20
2018-02-06T21:59:05.019Z,1.20
2018-02-06T22:01:32.466Z,1.20
2018-02-06T22:03:59.924Z,1.20
2018-02-06T22:06:27.368Z,1.20
2018-02-06T22:08:54.834Z,1.10
2018-02-06T22:11:22.265Z,1.10
2018-02-06T22:13:49.704Z,1.00
2018-02-06T22:16:17.145Z,1.10
2018-02-06T22:18:44.630Z,1.20
2018-02-06T22:21:12.143Z,1.00
2018-02-06T22:23:39.583Z,0.90
2018-02-06T22:26:07.036Z,0.80
2018-02-06T22:28:34.502Z,0.80
2018-02-06T22:31:01.958Z,0.80
2018-02-06T22:33:29.418Z,0.80
2018-02-06T22:35:57.639Z,0.70
2018-02-06T22:38:25.085Z,0.70
2018-02-06T22:40:52.536Z,0.50
2018-02-06T22:43:20.166Z,0.40
2018-02-06T22:45:47.608Z,0.50
2018-02-06T22:48:15.047Z,0.40
2018-02-06T22:50:42.499Z,0.50
2018-02-06T22:53:09.947Z,0.60
2018-02-06T22:55:37.391Z,0.50
2018-02-06T22:58:04.849Z,0.40
2018-02-06T23:00:32.313Z,0.50
2018-02-06T23:02:59.748Z,0.40
2018-02-06T23:05:27.308Z,0.50
2018-02-06T23:07:54.766Z,0.60
2018-02-06T23:10:22.223Z,0.70
2018-02-06T23:12:49.687Z,0.80
2018-02-06T23:15:17.126Z,0.80
2018-02-06T23:17:44.583Z,1.00
2018-02-06T23:20:12.020Z,1.00
2018-02-06T23:22:39.476Z,1.10
2018-02-06T23:25:06.936Z,1.00
2018-02-06T23:27:34.371Z,0.90
2018-02-06T23:30:02.592Z,0.60
2018-02-06T23:32:30.028Z,0.50
2018-02-06T23:34:57.488Z,0.50
2018-02-06T23:37:24.955Z,0.40
2018-02-06T23:39:52.392Z,0.30
2018-02-06T23:42:20.626Z,0.40
2018-02-06T23:44:48.062Z,0.40
2018-02-06T23:47:15.519Z,0.50
2018-02-06T23:49:43.072Z,0.50
2018-02-06T23:52:10.500Z,0.60
2018-02-06T23:54:37.943Z,0.70
2018-02-06T23:57:05.392Z,0.60
2018-02-06T23:59:32.850Z,0.60
